Date,TemperatureHighF,TemperatureAvgF,TemperatureLowF,DewpointHighF,DewpointAvgF,DewpointLowF,HumidityHigh,HumidityAvg,HumidityLow,PressureMaxIn,PressureMinIn,WindSpeedMaxMPH,WindSpeedAvgMPH,GustSpeedMaxMPH,PrecipitationSumIn
2013-10-1,48,44,41,46,44,41,99,97,93,0.00,40.00,1,0,2,0.01
2013-10-2,48,43,41,45,42,41,100,98,90,0.00,40.00,0,0,3,0.02
2013-10-3,43,42,39,43,41,39,100,99,96,0.00,40.00,1,0,4,0.06
2013-10-4,45,40,37,44,40,37,100,99,94,0.00,40.00,0,0,3,0.04
2013-10-5,46,42,39,42,40,39,100,96,81,0.00,40.00,4,1,7,0.07
2013-10-6,50,41,34,41,37,32,100,87,53,0.00,40.00,5,1,10,0.00
2013-10-7,48,37,32,43,36,32,100,96,73,0.00,40.00,1,0,3,0.01
2013-10-8,45,38,32,39,35,32,100,91,74,0.00,40.00,10,3,14,0.01
2013-10-9,45,42,39,42,39,36,98,91,79,0.00,40.00,11,5,15,0.01
2013-10-10,45,41,39,42,39,37,99,94,82,0.00,40.00,4,1,7,0.01
2013-10-11,45,42,39,42,40,39,99,94,84,0.00,40.00,4,2,7,0.01
2013-10-12,45,41,39,41,38,-100,99,89,76,0.00,40.00,4,2,7,0.01
2013-10-13,45,41,39,43,40,39,100,97,91,0.00,40.00,6,1,10,0.15
2013-10-14,46,44,41,46,44,41,100,96,86,0.00,40.00,6,2,10,0.05
2013-10-15,46,42,39,41,39,38,100,90,76,0.00,40.00,4,2,8,0.01
2013-10-16,46,43,41,42,40,38,98,90,79,0.00,40.00,4,1,7,0.00
2013-10-17,45,38,32,41,37,32,100,96,79,0.00,40.00,2,0,4,0.01
2013-10-18,43,40,39,43,40,37,99,97,91,0.00,40.00,3,1,6,0.03
2013-10-19,50,44,41,47,42,-100,100,94,81,0.00,40.00,5,2,11,0.01
2013-10-20,50,45,43,47,44,41,100,97,83,0.00,40.00,5,1,11,0.10
2013-10-21,46,39,32,42,38,32,100,96,78,0.00,40.00,1,0,5,0.00
2013-10-22,43,35,30,32,30,27,100,82,56,0.00,40.00,5,2,11,0.00
2013-10-23,48,37,32,45,34,27,100,92,62,0.00,40.00,9,2,13,0.14
2013-10-24,48,41,37,45,40,37,100,94,82,0.00,40.00,7,1,12,0.01
2013-10-25,46,43,39,45,42,39,100,97,90,0.00,40.00,5,2,9,0.02
2013-10-26,50,41,32,46,39,-100,100,96,81,0.00,40.00,2,1,7,0.01
2013-10-27,41,37,32,37,34,30,99,89,69,0.00,40.00,4,1,10,0.00
2013-10-28,43,37,34,38,36,29,99,96,59,0.00,40.00,5,0,10,0.01
2013-10-29,43,41,37,41,38,36,99,92,85,0.00,40.00,5,3,9,0.01
2013-10-30,41,39,37,41,39,37,100,98,91,0.00,40.00,3,0,7,0.05
2013-10-31,45,42,37,40,36,34,100,82,68,0.00,40.00,6,4,11,0.00